La Ronge Airport
CYVC : now visible

Airfield :











YOU CAN JOIN US ON...

 
LOGIN :

Register | Disclaimer

   EN    FR    IT 

 









Legend :    VFR   Marginal VFR   IFR   Intensive IFR   Very Intensive IFR
Visi :
Ceiling :
>= 8 km
>= 3000ft
5 to 8 km
1000 to 3000 ft
1500m to 5 km
500 to 1000 ft
800 to 1500m
200 to 500 ft
< 800m
< 200 ft
Symbols :   Thunderstorms  Fog  Heavy snow  Heavy precipitations  Wind > 20 kt






- Airport Elevation : 1242 ft
- IATA code : YVC


CYVC - La Ronge

CURRENT METAR :
  • 021900Z VRB05KT 6SM FU SKC 30/10 A3004 RMK SLP174 DENSITY ALT 3200FT

EXPIRED METARs :
  • 021800Z 01003KT 320V050 3SM FU SKC 30/13 A3005 RMK SLP176 DENSITY ALT 3100FT
  • 021711Z 05004KT 350V080 3SM FU FEW250 29/14 A3005 RMK CI2 SLP179 DENSITY ALT 3000FT
  • 021700Z 03005KT 2SM FU SCT250 29/14 A3006 RMK CI3 SLP181 DENSITY ALT 3000FT
  • 021653Z 00000KT 2SM FU SCT250 28/14 A3006 RMK CI3 SLP182 DENSITY ALT 2900FT

TAF TAF CYVC
Valid from the 02 at 19:00 until the 03 at 07:00 UTC


021838Z 0219/0307 VRB03KT 6SM FU SCT250
TEMPO 0219/0307 3SM FU RMK NXT FCST BY 030100Z
CZWG FIR / North America



MET'MAP, your aeronautical weather chart ! - Copyright ORBIFLY December 2007 - Disclaimer

ORBIFLY MET'MAP TEAM :

Programming & Development : Alexandra Zaïnal
Concept & original design : Baudouin d'Aumeries
Assistance for programming : Marc-Olivier Méhu
Technical & hardware support : Manuel Goepfert

Contact : metmap@orbifly.com




SOURCES & CREDITS :

   NOAA       Earth
Advisory